sensor_id;sensor_type;location;lat;lon;timestamp;P1;durP1;ratioP1;P2;durP2;ratioP2
12420;SDS011;6275;43.688;1.408;2023-06-10T00:02:16;0.80;;;0.80;;
12420;SDS011;6275;43.688;1.408;2023-06-10T00:04:43;0.60;;;0.60;;
12420;SDS011;6275;43.688;1.408;2023-06-10T00:07:11;0.60;;;0.60;;
12420;SDS011;6275;43.688;1.408;2023-06-10T00:09:38;0.60;;;0.60;;
12420;SDS011;6275;43.688;1.408;2023-06-10T00:12:06;0.60;;;0.60;;
12420;SDS011;6275;43.688;1.408;2023-06-10T00:14:35;0.60;;;0.60;;
12420;SDS011;6275;43.688;1.408;2023-06-10T00:17:02;0.60;;;0.60;;
12420;SDS011;6275;43.688;1.408;2023-06-10T00:19:29;0.90;;;0.90;;
12420;SDS011;6275;43.688;1.408;2023-06-10T00:21:57;1.00;;;1.00;;
12420;SDS011;6275;43.688;1.408;2023-06-10T00:24:24;1.00;;;1.00;;
12420;SDS011;6275;43.688;1.408;2023-06-10T00:26:52;1.03;;;1.03;;
12420;SDS011;6275;43.688;1.408;2023-06-10T00:29:19;0.77;;;0.77;;
12420;SDS011;6275;43.688;1.408;2023-06-10T00:31:47;0.60;;;0.60;;
12420;SDS011;6275;43.688;1.408;2023-06-10T00:34:14;0.50;;;0.50;;
12420;SDS011;6275;43.688;1.408;2023-06-10T00:36:41;0.60;;;0.60;;
12420;SDS011;6275;43.688;1.408;2023-06-10T00:39:09;0.50;;;0.50;;
12420;SDS011;6275;43.688;1.408;2023-06-10T00:41:36;0.60;;;0.60;;
12420;SDS011;6275;43.688;1.408;2023-06-10T00:44:04;0.70;;;0.70;;
12420;SDS011;6275;43.688;1.408;2023-06-10T00:46:31;0.60;;;0.60;;
12420;SDS011;6275;43.688;1.408;2023-06-10T00:48:59;0.60;;;0.60;;
12420;SDS011;6275;43.688;1.408;2023-06-10T00:51:27;0.60;;;0.60;;
12420;SDS011;6275;43.688;1.408;2023-06-10T00:53:54;0.60;;;0.60;;
12420;SDS011;6275;43.688;1.408;2023-06-10T00:56:22;0.70;;;0.70;;
12420;SDS011;6275;43.688;1.408;2023-06-10T00:58:49;0.60;;;0.60;;
12420;SDS011;6275;43.688;1.408;2023-06-10T01:01:17;0.60;;;0.60;;
12420;SDS011;6275;43.688;1.408;2023-06-10T01:03:46;0.50;;;0.50;;
12420;SDS011;6275;43.688;1.408;2023-06-10T01:06:18;0.60;;;0.60;;
12420;SDS011;6275;43.688;1.408;2023-06-10T01:08:57;0.50;;;0.50;;
12420;SDS011;6275;43.688;1.408;2023-06-10T01:11:34;0.60;;;0.60;;
12420;SDS011;6275;43.688;1.408;2023-06-10T01:14:02;0.50;;;0.50;;
12420;SDS011;6275;43.688;1.408;2023-06-10T01:16:31;0.50;;;0.50;;
12420;SDS011;6275;43.688;1.408;2023-06-10T01:18:59;0.50;;;0.50;;
12420;SDS011;6275;43.688;1.408;2023-06-10T01:21:26;0.40;;;0.40;;
12420;SDS011;6275;43.688;1.408;2023-06-10T01:23:54;0.50;;;0.50;;
12420;SDS011;6275;43.688;1.408;2023-06-10T01:26:23;0.50;;;0.50;;
12420;SDS011;6275;43.688;1.408;2023-06-10T01:31:30;0.60;;;0.60;;
12420;SDS011;6275;43.688;1.408;2023-06-10T01:34:01;0.40;;;0.40;;
12420;SDS011;6275;43.688;1.408;2023-06-10T01:36:28;0.50;;;0.50;;
12420;SDS011;6275;43.688;1.408;2023-06-10T01:38:56;0.43;;;0.43;;
12420;SDS011;6275;43.688;1.408;2023-06-10T01:41:24;0.40;;;0.40;;
12420;SDS011;6275;43.688;1.408;2023-06-10T01:43:54;0.50;;;0.50;;
12420;SDS011;6275;43.688;1.408;2023-06-10T01:56:10;0.40;;;0.40;;
12420;SDS011;6275;43.688;1.408;2023-06-10T01:58:43;0.20;;;0.20;;
12420;SDS011;6275;43.688;1.408;2023-06-10T02:01:11;0.10;;;0.10;;
12420;SDS011;6275;43.688;1.408;2023-06-10T02:03:38;0.10;;;0.10;;
12420;SDS011;6275;43.688;1.408;2023-06-10T02:06:05;0.10;;;0.10;;
12420;SDS011;6275;43.688;1.408;2023-06-10T02:08:33;0.10;;;0.10;;
12420;SDS011;6275;43.688;1.408;2023-06-10T02:11:01;0.10;;;0.10;;
12420;SDS011;6275;43.688;1.408;2023-06-10T02:13:28;0.00;;;0.00;;
12420;SDS011;6275;43.688;1.408;2023-06-10T02:15:55;0.00;;;0.00;;
12420;SDS011;6275;43.688;1.408;2023-06-10T02:18:23;0.00;;;0.00;;
12420;SDS011;6275;43.688;1.408;2023-06-10T02:20:50;0.10;;;0.10;;
12420;SDS011;6275;43.688;1.408;2023-06-10T02:23:17;0.10;;;0.10;;
12420;SDS011;6275;43.688;1.408;2023-06-10T02:25:45;0.10;;;0.10;;
12420;SDS011;6275;43.688;1.408;2023-06-10T02:28:14;0.10;;;0.10;;
12420;SDS011;6275;43.688;1.408;2023-06-10T02:30:41;0.10;;;0.10;;
12420;SDS011;6275;43.688;1.408;2023-06-10T02:33:09;0.00;;;0.00;;
12420;SDS011;6275;43.688;1.408;2023-06-10T02:35:40;0.00;;;0.00;;
12420;SDS011;6275;43.688;1.408;2023-06-10T02:38:07;0.10;;;0.10;;
12420;SDS011;6275;43.688;1.408;2023-06-10T02:40:35;0.10;;;0.10;;
12420;SDS011;6275;43.688;1.408;2023-06-10T02:43:02;0.00;;;0.00;;
12420;SDS011;6275;43.688;1.408;2023-06-10T02:45:30;0.00;;;0.00;;
12420;SDS011;6275;43.688;1.408;2023-06-10T02:47:57;0.00;;;0.00;;
12420;SDS011;6275;43.688;1.408;2023-06-10T02:50:24;0.00;;;0.00;;
12420;SDS011;6275;43.688;1.408;2023-06-10T02:52:52;0.10;;;0.10;;
12420;SDS011;6275;43.688;1.408;2023-06-10T02:55:19;0.00;;;0.00;;
12420;SDS011;6275;43.688;1.408;2023-06-10T02:57:46;0.00;;;0.00;;
12420;SDS011;6275;43.688;1.408;2023-06-10T03:00:14;0.00;;;0.00;;
12420;SDS011;6275;43.688;1.408;2023-06-10T03:02:41;0.00;;;0.00;;
12420;SDS011;6275;43.688;1.408;2023-06-10T03:05:09;0.00;;;0.00;;
12420;SDS011;6275;43.688;1.408;2023-06-10T03:07:37;0.10;;;0.10;;
12420;SDS011;6275;43.688;1.408;2023-06-10T03:10:05;0.00;;;0.00;;
12420;SDS011;6275;43.688;1.408;2023-06-10T03:12:33;0.10;;;0.10;;
12420;SDS011;6275;43.688;1.408;2023-06-10T03:15:00;0.00;;;0.00;;
12420;SDS011;6275;43.688;1.408;2023-06-10T03:17:30;0.00;;;0.00;;
12420;SDS011;6275;43.688;1.408;2023-06-10T03:19:57;0.00;;;0.00;;
12420;SDS011;6275;43.688;1.408;2023-06-10T03:22:25;0.00;;;0.00;;
12420;SDS011;6275;43.688;1.408;2023-06-10T03:24:53;0.00;;;0.00;;
12420;SDS011;6275;43.688;1.408;2023-06-10T03:27:21;0.00;;;0.00;;
12420;SDS011;6275;43.688;1.408;2023-06-10T03:29:48;0.00;;;0.00;;
12420;SDS011;6275;43.688;1.408;2023-06-10T03:32:15;0.00;;;0.00;;
12420;SDS011;6275;43.688;1.408;2023-06-10T03:34:43;0.00;;;0.00;;
12420;SDS011;6275;43.688;1.408;2023-06-10T03:37:14;0.00;;;0.00;;
12420;SDS011;6275;43.688;1.408;2023-06-10T03:39:41;0.00;;;0.00;;
12420;SDS011;6275;43.688;1.408;2023-06-10T03:42:08;0.00;;;0.00;;
12420;SDS011;6275;43.688;1.408;2023-06-10T03:44:36;0.00;;;0.00;;
12420;SDS011;6275;43.688;1.408;2023-06-10T03:47:04;0.00;;;0.00;;
12420;SDS011;6275;43.688;1.408;2023-06-10T03:49:31;0.00;;;0.00;;
12420;SDS011;6275;43.688;1.408;2023-06-10T03:51:59;0.00;;;0.00;;
12420;SDS011;6275;43.688;1.408;2023-06-10T03:54:26;0.00;;;0.00;;
12420;SDS011;6275;43.688;1.408;2023-06-10T03:56:54;0.00;;;0.00;;
12420;SDS011;6275;43.688;1.408;2023-06-10T03:59:21;0.00;;;0.00;;
12420;SDS011;6275;43.688;1.408;2023-06-10T04:01:48;0.00;;;0.00;;
12420;SDS011;6275;43.688;1.408;2023-06-10T04:04:16;0.00;;;0.00;;
12420;SDS011;6275;43.688;1.408;2023-06-10T04:06:43;0.00;;;0.00;;
12420;SDS011;6275;43.688;1.408;2023-06-10T04:09:11;0.00;;;0.00;;
12420;SDS011;6275;43.688;1.408;2023-06-10T04:11:39;0.00;;;0.00;;
12420;SDS011;6275;43.688;1.408;2023-06-10T04:14:06;0.00;;;0.00;;
12420;SDS011;6275;43.688;1.408;2023-06-10T04:16:34;0.00;;;0.00;;
12420;SDS011;6275;43.688;1.408;2023-06-10T04:19:01;0.10;;;0.10;;
12420;SDS011;6275;43.688;1.408;2023-06-10T04:21:29;0.00;;;0.00;;
12420;SDS011;6275;43.688;1.408;2023-06-10T04:23:56;0.00;;;0.00;;
12420;SDS011;6275;43.688;1.408;2023-06-10T04:26:23;0.00;;;0.00;;
12420;SDS011;6275;43.688;1.408;2023-06-10T04:28:52;0.00;;;0.00;;
12420;SDS011;6275;43.688;1.408;2023-06-10T04:31:19;0.00;;;0.00;;
12420;SDS011;6275;43.688;1.408;2023-06-10T04:33:47;0.00;;;0.00;;
12420;SDS011;6275;43.688;1.408;2023-06-10T04:36:14;0.00;;;0.00;;
12420;SDS011;6275;43.688;1.408;2023-06-10T04:38:41;0.00;;;0.00;;
12420;SDS011;6275;43.688;1.408;2023-06-10T04:41:09;0.00;;;0.00;;
12420;SDS011;6275;43.688;1.408;2023-06-10T04:43:36;0.00;;;0.00;;
12420;SDS011;6275;43.688;1.408;2023-06-10T04:46:04;0.00;;;0.00;;
12420;SDS011;6275;43.688;1.408;2023-06-10T04:48:34;0.00;;;0.00;;
12420;SDS011;6275;43.688;1.408;2023-06-10T04:51:02;0.03;;;0.03;;
12420;SDS011;6275;43.688;1.408;2023-06-10T04:53:29;0.00;;;0.00;;
12420;SDS011;6275;43.688;1.408;2023-06-10T04:55:58;0.10;;;0.10;;
12420;SDS011;6275;43.688;1.408;2023-06-10T04:58:25;0.10;;;0.10;;
12420;SDS011;6275;43.688;1.408;2023-06-10T05:00:52;0.00;;;0.00;;
12420;SDS011;6275;43.688;1.408;2023-06-10T05:03:19;0.00;;;0.00;;
12420;SDS011;6275;43.688;1.408;2023-06-10T05:05:47;0.00;;;0.00;;
12420;SDS011;6275;43.688;1.408;2023-06-10T05:08:14;0.00;;;0.00;;
12420;SDS011;6275;43.688;1.408;2023-06-10T05:10:42;0.05;;;0.05;;
12420;SDS011;6275;43.688;1.408;2023-06-10T05:13:09;0.00;;;0.00;;
12420;SDS011;6275;43.688;1.408;2023-06-10T05:15:36;0.00;;;0.00;;
12420;SDS011;6275;43.688;1.408;2023-06-10T05:18:04;0.00;;;0.00;;
12420;SDS011;6275;43.688;1.408;2023-06-10T05:20:31;0.00;;;0.00;;
12420;SDS011;6275;43.688;1.408;2023-06-10T05:22:59;0.10;;;0.10;;
12420;SDS011;6275;43.688;1.408;2023-06-10T05:25:28;0.00;;;0.00;;
12420;SDS011;6275;43.688;1.408;2023-06-10T05:27:57;0.00;;;0.00;;
12420;SDS011;6275;43.688;1.408;2023-06-10T05:30:24;0.00;;;0.00;;
12420;SDS011;6275;43.688;1.408;2023-06-10T05:32:52;0.10;;;0.10;;
12420;SDS011;6275;43.688;1.408;2023-06-10T05:35:20;0.00;;;0.00;;
12420;SDS011;6275;43.688;1.408;2023-06-10T05:37:47;0.08;;;0.08;;
12420;SDS011;6275;43.688;1.408;2023-06-10T05:40:15;0.10;;;0.10;;
12420;SDS011;6275;43.688;1.408;2023-06-10T05:42:42;0.00;;;0.00;;
12420;SDS011;6275;43.688;1.408;2023-06-10T05:45:10;0.00;;;0.00;;
12420;SDS011;6275;43.688;1.408;2023-06-10T05:47:37;0.10;;;0.10;;
12420;SDS011;6275;43.688;1.408;2023-06-10T05:50:04;0.10;;;0.10;;
12420;SDS011;6275;43.688;1.408;2023-06-10T05:52:33;0.00;;;0.00;;
12420;SDS011;6275;43.688;1.408;2023-06-10T05:55:02;0.10;;;0.10;;
12420;SDS011;6275;43.688;1.408;2023-06-10T05:57:29;0.00;;;0.00;;
12420;SDS011;6275;43.688;1.408;2023-06-10T05:59:56;0.10;;;0.10;;
12420;SDS011;6275;43.688;1.408;2023-06-10T06:02:24;0.10;;;0.10;;
12420;SDS011;6275;43.688;1.408;2023-06-10T06:04:51;0.00;;;0.00;;
12420;SDS011;6275;43.688;1.408;2023-06-10T06:07:19;0.00;;;0.00;;
12420;SDS011;6275;43.688;1.408;2023-06-10T06:09:47;0.10;;;0.10;;
12420;SDS011;6275;43.688;1.408;2023-06-10T06:12:14;0.10;;;0.10;;
12420;SDS011;6275;43.688;1.408;2023-06-10T06:14:42;0.10;;;0.10;;
12420;SDS011;6275;43.688;1.408;2023-06-10T06:17:11;0.00;;;0.00;;
12420;SDS011;6275;43.688;1.408;2023-06-10T06:19:38;0.10;;;0.10;;
12420;SDS011;6275;43.688;1.408;2023-06-10T06:22:06;0.10;;;0.10;;
12420;SDS011;6275;43.688;1.408;2023-06-10T06:24:33;0.00;;;0.00;;
12420;SDS011;6275;43.688;1.408;2023-06-10T06:27:01;0.10;;;0.10;;
12420;SDS011;6275;43.688;1.408;2023-06-10T06:29:28;0.10;;;0.10;;
12420;SDS011;6275;43.688;1.408;2023-06-10T06:31:56;0.00;;;0.00;;
12420;SDS011;6275;43.688;1.408;2023-06-10T06:34:24;0.10;;;0.10;;
12420;SDS011;6275;43.688;1.408;2023-06-10T06:36:51;0.10;;;0.10;;
12420;SDS011;6275;43.688;1.408;2023-06-10T06:39:19;0.10;;;0.10;;
12420;SDS011;6275;43.688;1.408;2023-06-10T06:41:46;0.10;;;0.10;;
12420;SDS011;6275;43.688;1.408;2023-06-10T06:44:13;0.10;;;0.10;;
12420;SDS011;6275;43.688;1.408;2023-06-10T06:46:40;0.10;;;0.10;;
12420;SDS011;6275;43.688;1.408;2023-06-10T06:49:08;0.10;;;0.10;;
12420;SDS011;6275;43.688;1.408;2023-06-10T06:51:35;0.00;;;0.00;;
12420;SDS011;6275;43.688;1.408;2023-06-10T06:54:03;0.10;;;0.10;;
12420;SDS011;6275;43.688;1.408;2023-06-10T06:56:31;0.10;;;0.10;;
12420;SDS011;6275;43.688;1.408;2023-06-10T06:58:59;0.00;;;0.00;;
12420;SDS011;6275;43.688;1.408;2023-06-10T07:01:26;0.10;;;0.10;;
12420;SDS011;6275;43.688;1.408;2023-06-10T07:03:54;0.10;;;0.10;;
12420;SDS011;6275;43.688;1.408;2023-06-10T07:06:21;0.10;;;0.10;;
12420;SDS011;6275;43.688;1.408;2023-06-10T07:08:49;0.08;;;0.08;;
12420;SDS011;6275;43.688;1.408;2023-06-10T07:11:17;0.10;;;0.10;;
12420;SDS011;6275;43.688;1.408;2023-06-10T07:13:44;0.10;;;0.10;;
12420;SDS011;6275;43.688;1.408;2023-06-10T07:16:11;0.10;;;0.10;;
12420;SDS011;6275;43.688;1.408;2023-06-10T07:18:39;0.10;;;0.10;;
12420;SDS011;6275;43.688;1.408;2023-06-10T07:21:06;0.10;;;0.10;;
12420;SDS011;6275;43.688;1.408;2023-06-10T07:23:33;0.10;;;0.10;;
12420;SDS011;6275;43.688;1.408;2023-06-10T07:26:01;0.10;;;0.10;;
12420;SDS011;6275;43.688;1.408;2023-06-10T07:28:28;0.10;;;0.10;;
12420;SDS011;6275;43.688;1.408;2023-06-10T07:30:55;0.03;;;0.03;;
12420;SDS011;6275;43.688;1.408;2023-06-10T07:33:23;0.10;;;0.10;;
12420;SDS011;6275;43.688;1.408;2023-06-10T07:35:50;0.10;;;0.10;;
12420;SDS011;6275;43.688;1.408;2023-06-10T07:38:18;0.10;;;0.10;;
12420;SDS011;6275;43.688;1.408;2023-06-10T07:40:45;0.10;;;0.10;;
12420;SDS011;6275;43.688;1.408;2023-06-10T07:43:12;0.10;;;0.10;;
12420;SDS011;6275;43.688;1.408;2023-06-10T07:45:40;0.10;;;0.10;;
12420;SDS011;6275;43.688;1.408;2023-06-10T07:48:07;0.10;;;0.10;;
12420;SDS011;6275;43.688;1.408;2023-06-10T07:50:35;0.10;;;0.10;;
12420;SDS011;6275;43.688;1.408;2023-06-10T07:53:02;0.10;;;0.10;;
12420;SDS011;6275;43.688;1.408;2023-06-10T07:55:31;0.05;;;0.05;;
12420;SDS011;6275;43.688;1.408;2023-06-10T07:57:58;0.10;;;0.10;;
12420;SDS011;6275;43.688;1.408;2023-06-10T08:00:25;0.10;;;0.10;;
12420;SDS011;6275;43.688;1.408;2023-06-10T08:02:53;0.10;;;0.10;;
12420;SDS011;6275;43.688;1.408;2023-06-10T08:05:20;0.10;;;0.10;;
12420;SDS011;6275;43.688;1.408;2023-06-10T08:07:48;0.10;;;0.10;;
12420;SDS011;6275;43.688;1.408;2023-06-10T08:10:15;0.10;;;0.10;;
12420;SDS011;6275;43.688;1.408;2023-06-10T08:12:42;0.10;;;0.10;;
12420;SDS011;6275;43.688;1.408;2023-06-10T08:15:10;0.10;;;0.10;;
12420;SDS011;6275;43.688;1.408;2023-06-10T08:17:37;0.10;;;0.10;;
12420;SDS011;6275;43.688;1.408;2023-06-10T08:20:06;0.10;;;0.10;;
12420;SDS011;6275;43.688;1.408;2023-06-10T08:22:33;0.10;;;0.10;;
12420;SDS011;6275;43.688;1.408;2023-06-10T08:25:01;0.10;;;0.10;;
12420;SDS011;6275;43.688;1.408;2023-06-10T08:27:28;0.10;;;0.10;;
12420;SDS011;6275;43.688;1.408;2023-06-10T08:29:55;0.10;;;0.10;;
12420;SDS011;6275;43.688;1.408;2023-06-10T08:32:23;0.10;;;0.10;;
12420;SDS011;6275;43.688;1.408;2023-06-10T08:34:50;0.10;;;0.10;;
12420;SDS011;6275;43.688;1.408;2023-06-10T08:37:18;0.10;;;0.10;;
12420;SDS011;6275;43.688;1.408;2023-06-10T08:39:45;0.00;;;0.00;;
12420;SDS011;6275;43.688;1.408;2023-06-10T08:42:28;0.00;;;0.00;;
12420;SDS011;6275;43.688;1.408;2023-06-10T08:45:00;0.10;;;0.10;;
12420;SDS011;6275;43.688;1.408;2023-06-10T08:47:29;0.10;;;0.10;;
12420;SDS011;6275;43.688;1.408;2023-06-10T08:50:02;0.00;;;0.00;;
12420;SDS011;6275;43.688;1.408;2023-06-10T08:52:36;0.10;;;0.10;;
12420;SDS011;6275;43.688;1.408;2023-06-10T08:55:04;0.00;;;0.00;;
12420;SDS011;6275;43.688;1.408;2023-06-10T08:57:32;0.10;;;0.10;;
12420;SDS011;6275;43.688;1.408;2023-06-10T09:00:00;0.00;;;0.00;;
12420;SDS011;6275;43.688;1.408;2023-06-10T09:02:29;0.10;;;0.10;;
12420;SDS011;6275;43.688;1.408;2023-06-10T09:04:57;0.05;;;0.05;;
12420;SDS011;6275;43.688;1.408;2023-06-10T09:07:25;0.08;;;0.08;;
12420;SDS011;6275;43.688;1.408;2023-06-10T09:09:53;0.10;;;0.10;;
12420;SDS011;6275;43.688;1.408;2023-06-10T09:12:20;0.00;;;0.00;;
12420;SDS011;6275;43.688;1.408;2023-06-10T09:14:48;0.00;;;0.00;;
12420;SDS011;6275;43.688;1.408;2023-06-10T09:17:16;0.00;;;0.00;;
12420;SDS011;6275;43.688;1.408;2023-06-10T09:19:44;0.00;;;0.00;;
12420;SDS011;6275;43.688;1.408;2023-06-10T09:22:12;0.00;;;0.00;;
12420;SDS011;6275;43.688;1.408;2023-06-10T09:24:39;0.00;;;0.00;;
12420;SDS011;6275;43.688;1.408;2023-06-10T09:27:07;0.00;;;0.00;;
12420;SDS011;6275;43.688;1.408;2023-06-10T09:29:52;0.00;;;0.00;;
12420;SDS011;6275;43.688;1.408;2023-06-10T09:32:20;0.00;;;0.00;;
12420;SDS011;6275;43.688;1.408;2023-06-10T09:34:47;0.07;;;0.07;;
12420;SDS011;6275;43.688;1.408;2023-06-10T09:37:25;0.10;;;0.10;;
12420;SDS011;6275;43.688;1.408;2023-06-10T09:40:05;0.10;;;0.10;;
12420;SDS011;6275;43.688;1.408;2023-06-10T09:42:33;0.10;;;0.10;;
12420;SDS011;6275;43.688;1.408;2023-06-10T09:45:02;0.10;;;0.10;;
12420;SDS011;6275;43.688;1.408;2023-06-10T09:47:29;0.00;;;0.00;;
12420;SDS011;6275;43.688;1.408;2023-06-10T09:49:57;0.10;;;0.10;;
12420;SDS011;6275;43.688;1.408;2023-06-10T09:52:24;0.08;;;0.08;;
12420;SDS011;6275;43.688;1.408;2023-06-10T09:54:53;0.10;;;0.10;;
12420;SDS011;6275;43.688;1.408;2023-06-10T09:57:21;0.00;;;0.00;;
12420;SDS011;6275;43.688;1.408;2023-06-10T09:59:52;0.10;;;0.10;;
12420;SDS011;6275;43.688;1.408;2023-06-10T10:02:20;0.10;;;0.10;;
12420;SDS011;6275;43.688;1.408;2023-06-10T10:56:23;0.00;;;0.00;;
12420;SDS011;6275;43.688;1.408;2023-06-10T10:59:06;0.00;;;0.00;;
12420;SDS011;6275;43.688;1.408;2023-06-10T11:01:40;0.00;;;0.00;;
12420;SDS011;6275;43.688;1.408;2023-06-10T12:49:59;0.00;;;0.00;;
12420;SDS011;6275;43.688;1.408;2023-06-10T12:52:26;0.00;;;0.00;;
12420;SDS011;6275;43.688;1.408;2023-06-10T12:54:54;0.10;;;0.10;;
12420;SDS011;6275;43.688;1.408;2023-06-10T12:57:21;0.10;;;0.10;;
12420;SDS011;6275;43.688;1.408;2023-06-10T13:04:50;0.00;;;0.00;;
12420;SDS011;6275;43.688;1.408;2023-06-10T13:07:18;0.10;;;0.10;;
12420;SDS011;6275;43.688;1.408;2023-06-10T13:09:45;0.10;;;0.10;;
12420;SDS011;6275;43.688;1.408;2023-06-10T13:12:15;0.00;;;0.00;;
12420;SDS011;6275;43.688;1.408;2023-06-10T18:37:05;0.00;;;0.00;;
12420;SDS011;6275;43.688;1.408;2023-06-10T18:39:33;0.00;;;0.00;;
12420;SDS011;6275;43.688;1.408;2023-06-10T18:42:01;0.00;;;0.00;;
12420;SDS011;6275;43.688;1.408;2023-06-10T18:44:28;0.00;;;0.00;;
12420;SDS011;6275;43.688;1.408;2023-06-10T18:46:56;0.10;;;0.10;;
12420;SDS011;6275;43.688;1.408;2023-06-10T18:49:23;0.00;;;0.00;;
12420;SDS011;6275;43.688;1.408;2023-06-10T18:51:50;0.00;;;0.00;;
12420;SDS011;6275;43.688;1.408;2023-06-10T18:54:18;0.08;;;0.08;;
12420;SDS011;6275;43.688;1.408;2023-06-10T18:56:46;0.00;;;0.00;;
12420;SDS011;6275;43.688;1.408;2023-06-10T18:59:14;0.00;;;0.00;;
12420;SDS011;6275;43.688;1.408;2023-06-10T19:01:42;0.00;;;0.00;;
12420;SDS011;6275;43.688;1.408;2023-06-10T19:04:09;0.00;;;0.00;;
12420;SDS011;6275;43.688;1.408;2023-06-10T19:06:36;0.10;;;0.10;;
12420;SDS011;6275;43.688;1.408;2023-06-10T19:09:05;0.10;;;0.10;;
12420;SDS011;6275;43.688;1.408;2023-06-10T19:11:32;0.10;;;0.10;;
12420;SDS011;6275;43.688;1.408;2023-06-10T19:14:00;0.10;;;0.10;;
12420;SDS011;6275;43.688;1.408;2023-06-10T19:16:27;0.10;;;0.10;;
12420;SDS011;6275;43.688;1.408;2023-06-10T19:18:54;0.10;;;0.10;;
12420;SDS011;6275;43.688;1.408;2023-06-10T19:21:22;0.10;;;0.10;;
12420;SDS011;6275;43.688;1.408;2023-06-10T19:23:49;0.10;;;0.10;;
12420;SDS011;6275;43.688;1.408;2023-06-10T19:26:17;0.10;;;0.10;;
12420;SDS011;6275;43.688;1.408;2023-06-10T19:28:44;0.10;;;0.10;;
12420;SDS011;6275;43.688;1.408;2023-06-10T19:31:11;0.10;;;0.10;;
12420;SDS011;6275;43.688;1.408;2023-06-10T19:33:39;0.10;;;0.10;;
12420;SDS011;6275;43.688;1.408;2023-06-10T19:36:06;0.10;;;0.10;;
12420;SDS011;6275;43.688;1.408;2023-06-10T19:38:33;0.10;;;0.10;;
12420;SDS011;6275;43.688;1.408;2023-06-10T19:41:01;0.10;;;0.10;;
12420;SDS011;6275;43.688;1.408;2023-06-10T19:43:30;0.03;;;0.03;;
12420;SDS011;6275;43.688;1.408;2023-06-10T19:45:57;0.10;;;0.10;;
12420;SDS011;6275;43.688;1.408;2023-06-10T19:48:25;0.10;;;0.10;;
12420;SDS011;6275;43.688;1.408;2023-06-10T19:50:52;0.10;;;0.10;;
12420;SDS011;6275;43.688;1.408;2023-06-10T19:53:19;0.10;;;0.10;;
12420;SDS011;6275;43.688;1.408;2023-06-10T19:55:47;0.10;;;0.10;;
12420;SDS011;6275;43.688;1.408;2023-06-10T19:58:14;0.10;;;0.10;;
12420;SDS011;6275;43.688;1.408;2023-06-10T20:00:41;0.10;;;0.10;;
12420;SDS011;6275;43.688;1.408;2023-06-10T20:03:08;0.10;;;0.10;;
12420;SDS011;6275;43.688;1.408;2023-06-10T20:05:36;0.05;;;0.05;;
12420;SDS011;6275;43.688;1.408;2023-06-10T20:08:04;0.10;;;0.10;;
12420;SDS011;6275;43.688;1.408;2023-06-10T20:10:32;0.10;;;0.10;;
12420;SDS011;6275;43.688;1.408;2023-06-10T20:12:59;0.10;;;0.10;;
12420;SDS011;6275;43.688;1.408;2023-06-10T20:15:27;0.10;;;0.10;;
12420;SDS011;6275;43.688;1.408;2023-06-10T20:17:54;0.08;;;0.08;;
12420;SDS011;6275;43.688;1.408;2023-06-10T20:20:21;0.10;;;0.10;;
12420;SDS011;6275;43.688;1.408;2023-06-10T20:22:49;0.10;;;0.10;;
12420;SDS011;6275;43.688;1.408;2023-06-10T20:25:16;0.10;;;0.10;;
12420;SDS011;6275;43.688;1.408;2023-06-10T20:27:43;0.10;;;0.10;;
12420;SDS011;6275;43.688;1.408;2023-06-10T20:30:12;0.10;;;0.10;;
12420;SDS011;6275;43.688;1.408;2023-06-10T20:32:40;0.10;;;0.10;;
12420;SDS011;6275;43.688;1.408;2023-06-10T20:35:07;0.10;;;0.10;;
12420;SDS011;6275;43.688;1.408;2023-06-10T20:37:35;0.10;;;0.10;;
12420;SDS011;6275;43.688;1.408;2023-06-10T20:40:03;0.08;;;0.08;;
12420;SDS011;6275;43.688;1.408;2023-06-10T20:42:31;0.00;;;0.00;;
12420;SDS011;6275;43.688;1.408;2023-06-10T20:44:59;0.10;;;0.10;;
12420;SDS011;6275;43.688;1.408;2023-06-10T20:47:26;0.05;;;0.05;;
12420;SDS011;6275;43.688;1.408;2023-06-10T20:49:54;0.10;;;0.10;;
12420;SDS011;6275;43.688;1.408;2023-06-10T20:52:21;0.05;;;0.05;;
12420;SDS011;6275;43.688;1.408;2023-06-10T20:54:48;0.10;;;0.10;;
12420;SDS011;6275;43.688;1.408;2023-06-10T20:57:16;0.10;;;0.10;;
12420;SDS011;6275;43.688;1.408;2023-06-10T20:59:43;0.10;;;0.10;;
12420;SDS011;6275;43.688;1.408;2023-06-10T21:02:11;0.10;;;0.10;;
12420;SDS011;6275;43.688;1.408;2023-06-10T21:04:38;0.10;;;0.10;;
12420;SDS011;6275;43.688;1.408;2023-06-10T21:07:05;0.10;;;0.10;;
12420;SDS011;6275;43.688;1.408;2023-06-10T21:09:33;0.10;;;0.10;;
12420;SDS011;6275;43.688;1.408;2023-06-10T21:12:01;0.10;;;0.10;;
12420;SDS011;6275;43.688;1.408;2023-06-10T21:14:28;0.10;;;0.10;;
12420;SDS011;6275;43.688;1.408;2023-06-10T21:16:55;0.10;;;0.10;;
12420;SDS011;6275;43.688;1.408;2023-06-10T21:19:23;0.10;;;0.10;;
12420;SDS011;6275;43.688;1.408;2023-06-10T21:21:50;0.10;;;0.10;;
12420;SDS011;6275;43.688;1.408;2023-06-10T21:24:17;0.10;;;0.10;;
12420;SDS011;6275;43.688;1.408;2023-06-10T21:26:45;0.05;;;0.05;;
12420;SDS011;6275;43.688;1.408;2023-06-10T21:29:13;0.10;;;0.10;;
12420;SDS011;6275;43.688;1.408;2023-06-10T21:31:40;0.10;;;0.10;;
12420;SDS011;6275;43.688;1.408;2023-06-10T21:34:08;0.10;;;0.10;;
12420;SDS011;6275;43.688;1.408;2023-06-10T21:36:35;0.08;;;0.08;;
12420;SDS011;6275;43.688;1.408;2023-06-10T21:39:02;0.10;;;0.10;;
12420;SDS011;6275;43.688;1.408;2023-06-10T21:41:30;0.10;;;0.10;;
12420;SDS011;6275;43.688;1.408;2023-06-10T21:43:57;0.10;;;0.10;;
12420;SDS011;6275;43.688;1.408;2023-06-10T21:46:24;0.00;;;0.00;;
12420;SDS011;6275;43.688;1.408;2023-06-10T21:48:55;0.10;;;0.10;;
12420;SDS011;6275;43.688;1.408;2023-06-10T21:51:22;0.10;;;0.10;;
12420;SDS011;6275;43.688;1.408;2023-06-10T21:53:50;0.10;;;0.10;;
12420;SDS011;6275;43.688;1.408;2023-06-10T21:56:17;0.10;;;0.10;;
12420;SDS011;6275;43.688;1.408;2023-06-10T21:58:44;0.10;;;0.10;;
12420;SDS011;6275;43.688;1.408;2023-06-10T22:01:14;0.10;;;0.10;;
12420;SDS011;6275;43.688;1.408;2023-06-10T22:03:42;0.10;;;0.10;;
12420;SDS011;6275;43.688;1.408;2023-06-10T22:06:10;0.10;;;0.10;;
12420;SDS011;6275;43.688;1.408;2023-06-10T22:08:37;0.10;;;0.10;;
12420;SDS011;6275;43.688;1.408;2023-06-10T22:11:05;0.10;;;0.10;;
12420;SDS011;6275;43.688;1.408;2023-06-10T22:13:32;0.00;;;0.00;;
12420;SDS011;6275;43.688;1.408;2023-06-10T22:15:59;0.00;;;0.00;;
12420;SDS011;6275;43.688;1.408;2023-06-10T22:18:27;0.05;;;0.05;;
12420;SDS011;6275;43.688;1.408;2023-06-10T22:20:54;0.10;;;0.10;;
12420;SDS011;6275;43.688;1.408;2023-06-10T22:23:21;0.03;;;0.03;;
12420;SDS011;6275;43.688;1.408;2023-06-10T22:25:49;0.10;;;0.10;;
12420;SDS011;6275;43.688;1.408;2023-06-10T22:28:17;0.10;;;0.10;;
12420;SDS011;6275;43.688;1.408;2023-06-10T22:30:44;0.10;;;0.10;;
12420;SDS011;6275;43.688;1.408;2023-06-10T22:33:12;0.10;;;0.10;;
12420;SDS011;6275;43.688;1.408;2023-06-10T22:35:39;0.10;;;0.10;;
12420;SDS011;6275;43.688;1.408;2023-06-10T22:38:06;0.10;;;0.10;;
12420;SDS011;6275;43.688;1.408;2023-06-10T22:40:34;0.10;;;0.10;;
12420;SDS011;6275;43.688;1.408;2023-06-10T22:43:01;0.10;;;0.10;;
12420;SDS011;6275;43.688;1.408;2023-06-10T22:45:29;0.00;;;0.00;;
12420;SDS011;6275;43.688;1.408;2023-06-10T22:47:56;0.10;;;0.10;;
12420;SDS011;6275;43.688;1.408;2023-06-10T22:50:24;0.00;;;0.00;;
12420;SDS011;6275;43.688;1.408;2023-06-10T22:52:52;0.10;;;0.10;;
12420;SDS011;6275;43.688;1.408;2023-06-10T22:55:19;0.10;;;0.10;;
12420;SDS011;6275;43.688;1.408;2023-06-10T22:57:47;0.10;;;0.10;;
12420;SDS011;6275;43.688;1.408;2023-06-10T23:00:14;0.03;;;0.03;;
12420;SDS011;6275;43.688;1.408;2023-06-10T23:02:42;0.10;;;0.10;;
12420;SDS011;6275;43.688;1.408;2023-06-10T23:05:09;0.00;;;0.00;;
12420;SDS011;6275;43.688;1.408;2023-06-10T23:07:37;0.00;;;0.00;;
12420;SDS011;6275;43.688;1.408;2023-06-10T23:10:05;0.00;;;0.00;;
12420;SDS011;6275;43.688;1.408;2023-06-10T23:12:33;0.10;;;0.10;;
12420;SDS011;6275;43.688;1.408;2023-06-10T23:15:01;0.00;;;0.00;;
12420;SDS011;6275;43.688;1.408;2023-06-10T23:17:29;0.03;;;0.03;;
12420;SDS011;6275;43.688;1.408;2023-06-10T23:19:57;0.05;;;0.05;;
12420;SDS011;6275;43.688;1.408;2023-06-10T23:22:24;0.10;;;0.10;;